Bookmark and Share
Track history (hours):
 

Drifting buoy 51627

Last reported at 2013-Mar-14 23:02 UTC. Time now 2014-Apr-24 02:22 UTC.
Position N 11°08' E 162°40'.
Warning: this ship's position is years out of date!

Water temperature 27.5 ° C

NotesDate/timePositionNaut miles runAvg speedWind from/ knotsBaromVisibWave heightAir tempDewpointWater temp
2013-Mar-14 23:02N 11°08' E 162°40'1 1.9 27.5
2013-Mar-14 22:43N 11°08' E 162°40'3 1.8 27.5
2013-Mar-14 21:17N 11°07' E 162°42'1 0.1 27.5
2013-Mar-14 16:52N 11°07' E 162°43'1 0.5 27.5
2013-Mar-14 15:07N 11°07' E 162°44'0 0.0 27.5
2013-Mar-14 15:04N 11°07' E 162°44'2 1.1 27.5
2013-Mar-14 13:20N 11°08' E 162°45'0 0.0 27.5
2013-Mar-14 11:43N 11°08' E 162°45'0 0.0 27.5
2013-Mar-14 10:29N 11°08' E 162°45'1 3.5 27.5
2013-Mar-14 10:10N 11°07' E 162°46'1 1.1 27.5
2013-Mar-14 09:01N 11°06' E 162°47'0 0.0 27.5
2013-Mar-14 08:43N 11°06' E 162°47'1 0.6 27.6
2013-Mar-14 07:02N 11°06' E 162°48'2 0.7 27.6
2013-Mar-14 04:04N 11°07' E 162°50'0 0.0 27.7
2013-Mar-14 02:28N 11°07' E 162°50'210.2 27.6
2013-Mar-14 02:19N 11°07' E 162°52'0 0.1 27.6
2013-Mar-13 23:16N 11°07' E 162°52'0 2.3 27.4
2013-Mar-13 23:05N 11°07' E 162°52'0 4.2 27.4
2013-Mar-13 22:59N 11°07' E 162°52'1 0.6 27.4
2013-Mar-13 21:22N 11°07' E 162°53'2 1.8 27.4
2013-Mar-13 20:28N 11°07' E 162°55'0 0.0 27.4
2013-Mar-13 18:14N 11°07' E 162°55'0 0.0 27.4
2013-Mar-13 17:04N 11°07' E 162°55'1 0.3 27.4
2013-Mar-13 15:20N 11°07' E 162°55'1 9.5 27.5
2013-Mar-13 15:16N 11°08' E 162°55'1 0.8 27.5
2013-Mar-13 13:35N 11°08' E 162°56'113.5 27.5
2013-Mar-13 13:31N 11°07' E 162°57'0 0.0 27.5
2013-Mar-13 12:07N 11°07' E 162°57'0 0.2 27.5
2013-Mar-13 10:40N 11°08' E 162°57'0 2.4 27.6
2013-Mar-13 10:31N 11°08' E 162°57'1 0.7 27.6
2013-Mar-13 08:58N 11°07' E 162°58'0 0.0 27.6
2013-Mar-13 08:46N 11°07' E 162°58'2 1.5 27.6
2013-Mar-13 07:46N 11°07' E 162°59'0 0.0 27.6
2013-Mar-13 07:23N 11°07' E 162°59'0 0.0 27.6
2013-Mar-13 06:10N 11°07' E 162°59'0 0.0 27.6
2013-Mar-13 05:43N 11°07' E 162°59'0 0.0 27.7
2013-Mar-13 04:20N 11°07' E 162°59'1 6.1 27.6
2013-Mar-13 04:14N 11°06' E 162°60'0 0.0 27.6
2013-Mar-13 04:10N 11°06' E 162°60'0 0.0
2013-Mar-13 02:40N 11°06' E 162°60'0 0.0 27.6
2013-Mar-13 02:37N 11°06' E 162°60'215.8 27.6
2013-Mar-13 02:28N 11°06' E 163°02'0 0.0 27.6
2013-Mar-13 00:52N 11°06' E 163°02'0 0.0 27.5
2013-Mar-12 23:25N 11°06' E 163°02'210.7 27.4
2013-Mar-12 23:16N 11°06' E 163°04'0 0.0 27.4
2013-Mar-12 20:50N 11°06' E 163°04'0 0.2 27.4
2013-Mar-12 18:41N 11°06' E 163°04'1 0.6 27.4
2013-Mar-12 17:14N 11°05' E 163°05'0 1.7 27.4
2013-Mar-12 16:58N 11°05' E 163°05'0 0.2 27.4
2013-Mar-12 15:28N 11°05' E 163°06'122.4 27.4
2013-Mar-12 15:26N 11°05' E 163°06'0 0.0 27.4
2013-Mar-12 15:19N 11°05' E 163°06'2 1.3 27.4
2013-Mar-12 13:41N 11°05' E 163°09'1 0.2 27.4
2013-Mar-12 10:50N 11°05' E 163°09'0 0.0 27.4
2013-Mar-12 09:10N 11°05' E 163°09'1 1.7 27.4
2013-Mar-12 08:19N 11°04' E 163°10'1 0.3 27.5
2013-Mar-12 06:11N 11°04' E 163°11'215.4 27.5
2013-Mar-12 06:02N 11°03' E 163°13'0 0.0 27.5
2013-Mar-12 04:22N 11°03' E 163°13'0 0.0
2013-Mar-12 02:53N 11°03' E 163°13'0 0.0 27.5
2013-Mar-12 02:47N 11°03' E 163°13'216.2 27.5
2013-Mar-12 02:40N 11°03' E 163°15'1 0.4 27.5
2013-Mar-11 23:38N 11°02' E 163°16'0 0.1 27.4
2013-Mar-11 22:04N 11°03' E 163°16'0 0.0 27.4
2013-Mar-11 21:59N 11°03' E 163°16'0 0.0 27.4
2013-Mar-11 21:11N 11°03' E 163°16'114.4 27.3
2013-Mar-11 21:05N 11°03' E 163°17'2 1.1
2013-Mar-11 19:05N 11°02' E 163°19'0 0.0 27.3
2013-Mar-11 17:25N 11°02' E 163°19'1 7.7 27.3
2013-Mar-11 17:17N 11°02' E 163°20'0 0.0 27.3
2013-Mar-11 15:43N 11°02' E 163°20'1 6.6 27.4
2013-Mar-11 15:35N 11°02' E 163°21'0 0.0 27.4
2013-Mar-11 13:58N 11°02' E 163°21'3 1.1 27.4
2013-Mar-11 11:10N 11°02' E 163°24'0 0.0 27.4
2013-Mar-11 10:59N 11°02' E 163°24'4 1.6 27.4
2013-Mar-11 08:40N 11°01' E 163°28'0 0.0 27.5
2013-Mar-11 04:38N 11°01' E 163°28'170.8 27.5
2013-Mar-11 04:37N 11°01' E 163°30'0 0.2 27.5
2013-Mar-11 02:58N 11°01' E 163°30'1 7.2 27.5
2013-Mar-11 02:50N 11°01' E 163°31'0 0.0 27.5
2013-Mar-11 01:16N 11°01' E 163°31'2 2.0 27.4
2013-Mar-11 00:02N 11°01' E 163°33'0 0.0 27.4
2013-Mar-10 22:26N 11°01' E 163°33'2 7.6 27.3
2013-Mar-10 22:13N 11°01' E 163°35'2 0.4 27.3
2013-Mar-10 17:32N 11°02' E 163°36'1 0.7 27.3
2013-Mar-10 15:55N 11°02' E 163°38'1 5.0 27.3
2013-Mar-10 15:40N 11°02' E 163°39'0 0.0 27.3
2013-Mar-10 14:10N 11°02' E 163°39'1 6.8 27.3
2013-Mar-10 13:58N 11°01' E 163°40'1 0.4 27.3
2013-Mar-10 11:13N 11°01' E 163°41'1 0.8 27.4
2013-Mar-10 09:53N 11°01' E 163°40'5 1.7 27.4
2013-Mar-10 06:56N 11°02' E 163°45'0 0.0 27.4
2013-Mar-10 04:55N 11°02' E 163°45'326.9 27.4
2013-Mar-10 04:49N 11°01' E 163°48'0 0.0 27.4
2013-Mar-10 03:05N 11°01' E 163°48'0 0.0 27.4
2013-Mar-10 01:28N 11°01' E 163°48'265.2 27.4
2013-Mar-10 01:26N 11°00' E 163°50'0 0.0 27.4
2013-Mar-10 00:19N 11°00' E 163°50'0 0.0
2013-Mar-09 22:43N 11°00' E 163°50'0 1.1 27.3
2013-Mar-09 22:28N 11°00' E 163°50'3 2.3 27.3
2013-Mar-09 21:02N 11°01' E 163°54'0 0.1 27.3
2013-Mar-09 18:16N 11°01' E 163°54'1 1.1 27.3
2013-Mar-09 17:46N 11°00' E 163°55'1 0.7 27.4
2013-Mar-09 16:05N 11°01' E 163°56'1 9.8 27.3
2013-Mar-09 15:56N 11°01' E 163°57'0 0.0 27.3
2013-Mar-09 15:53N 11°01' E 163°57'0 0.2 27.3
2013-Mar-09 14:14N 11°00' E 163°58'3 1.2 27.4
2013-Mar-09 11:50N 11°01' E 164°00'0 0.0 27.4
2013-Mar-09 10:13N 11°01' E 164°00'3 6.8 27.4
2013-Mar-09 09:47N 11°02' E 164°03'0 0.0 27.4
2013-Mar-09 07:22N 11°02' E 164°03'0 0.0 27.4
2013-Mar-09 06:08N 11°02' E 164°03'1 2.2 27.5
2013-Mar-09 05:43N 11°01' E 164°03'218.3 27.5
2013-Mar-09 05:37N 11°01' E 164°05'0 0.0 27.5
2013-Mar-09 05:04N 11°01' E 164°05'215.5 27.5
2013-Mar-09 04:58N 11°01' E 164°06'0 0.0 27.5
2013-Mar-09 03:20N 11°01' E 164°06'126.4 27.4
2013-Mar-09 03:17N 11°01' E 164°07'0 0.0 27.4
2013-Mar-09 01:40N 11°01' E 164°07'2 0.7 27.4
2013-Mar-08 23:08N 11°01' E 164°09'1 1.1 27.4
2013-Mar-08 22:38N 11°02' E 164°10'1 7.5 27.4
2013-Mar-08 22:31N 11°02' E 164°11'0 0.0 27.4
2013-Mar-08 21:26N 11°02' E 164°11'0 7.2 27.3
2013-Mar-08 21:22N 11°02' E 164°11'1 1.6 27.3
2013-Mar-08 20:52N 11°02' E 164°11'1 8.2 27.3
2013-Mar-08 20:46N 11°02' E 164°11'1 5.5 27.3
2013-Mar-08 20:37N 11°02' E 164°11'0 0.0 27.4
2013-Mar-08 19:04N 11°02' E 164°11'1 3.9 27.4
2013-Mar-08 18:41N 11°02' E 164°13'1 1.1 27.4
2013-Mar-08 17:50N 11°02' E 164°14'1 1.1 27.4
2013-Mar-08 16:59N 11°02' E 164°13'1 1.0 27.4
2013-Mar-08 16:16N 11°02' E 164°14'4 0.6 27.4
2013-Mar-08 10:35N 11°01' E 164°17'0 0.0 27.4
2013-Mar-08 10:02N 11°01' E 164°17'1 1.1 27.4
2013-Mar-08 08:52N 11°02' E 164°18'0 0.7 27.4
2013-Mar-08 08:17N 11°02' E 164°19'2 0.8 27.4
2013-Mar-08 06:11N 11°01' E 164°20'1 0.8 27.5
2013-Mar-08 05:17N 11°01' E 164°21'1 5.8 27.5
2013-Mar-08 05:10N 11°00' E 164°21'0 0.0 27.5
2013-Mar-08 04:29N 11°00' E 164°21'1 0.8 27.5
2013-Mar-08 03:28N 10°59' E 164°22'117.7 27.5
2013-Mar-08 03:25N 10°59' E 164°23'0 0.0 27.5
2013-Mar-08 01:49N 10°59' E 164°23'2 0.8 27.4
2013-Mar-07 23:28N 10°58' E 164°24'1 4.9 27.4
2013-Mar-07 23:20N 10°58' E 164°25'0 0.0 27.4
2013-Mar-07 22:52N 10°58' E 164°25'3 2.7 27.4
2013-Mar-07 21:41N 10°58' E 164°28'0 0.0 27.4
2013-Mar-07 21:08N 10°58' E 164°28'0 0.2 27.4
2013-Mar-07 19:04N 10°57' E 164°29'3 1.0 27.4
2013-Mar-07 16:19N 10°56' E 164°31'6 1.1 27.4
2013-Mar-07 10:55N 10°54' E 164°37'0 0.0 27.4
2013-Mar-07 10:13N 10°54' E 164°37'2 1.7 27.4
2013-Mar-07 09:10N 10°55' E 164°39'0 0.0 27.4
2013-Mar-07 08:31N 10°55' E 164°39'2 1.0 27.5
2013-Mar-07 06:58N 10°54' E 164°40'0 0.2 27.5
2013-Mar-07 06:34N 10°54' E 164°40'1 0.8 27.5
2013-Mar-07 05:26N 10°54' E 164°41'2 1.3 27.5
2013-Mar-07 03:35N 10°54' E 164°44'3 0.9 27.5
2013-Mar-06 23:41N 10°53' E 164°47'0 0.0 27.4
2013-Mar-06 23:02N 10°53' E 164°47'0 0.0 27.4
2013-Mar-06 22:10N 10°53' E 164°47'1 0.5 27.4
2013-Mar-06 19:52N 10°54' E 164°48'7 2.2 27.4
2013-Mar-06 16:40N 10°53' E 164°55'0 0.0 27.4
2013-Mar-06 14:50N 10°53' E 164°55'1 0.2 27.4
2013-Mar-06 11:14N 10°53' E 164°56'0 0.0 27.4
2013-Mar-06 10:22N 10°53' E 164°56'1 1.2 27.4
2013-Mar-06 09:29N 10°53' E 164°57'0 0.0 27.4
2013-Mar-06 08:53N 10°53' E 164°57'0 0.0 27.4
2013-Mar-06 08:41N 10°53' E 164°57'4 0.9 27.5
2013-Mar-06 03:44N 10°52' E 165°01'0 0.0 27.5
2013-Mar-06 02:11N 10°52' E 165°01'214.7 27.5
2013-Mar-06 02:04N 10°52' E 165°03'0 0.0 27.5
2013-Mar-05 23:11N 10°52' E 165°03'1 0.7 27.4
2013-Mar-05 22:29N 10°52' E 165°03'1 1.4 27.4
2013-Mar-05 21:35N 10°52' E 165°04'1 0.7 27.4
2013-Mar-05 20:17N 10°52' E 165°05'2 0.4 27.4
2013-Mar-05 15:04N 10°51' E 165°07'0 4.0 27.4
2013-Mar-05 15:02N 10°52' E 165°07'2 1.3 27.4
2013-Mar-05 13:13N 10°50' E 165°09'0 0.0 27.4
2013-Mar-05 11:34N 10°50' E 165°09'0 0.0 27.4
2013-Mar-05 10:32N 10°50' E 165°09'0 0.0 27.4
2013-Mar-05 09:55N 10°50' E 165°09'6 9.6 27.4
2013-Mar-05 09:19N 10°48' E 165°15'1 0.7 27.4
2013-Mar-05 07:46N 10°47' E 165°14'0 0.0 27.4
2013-Mar-05 07:19N 10°47' E 165°14'0 0.0 27.5
2013-Mar-05 03:59N 10°47' E 165°14'0 0.3 27.5
2013-Mar-05 02:28N 10°47' E 165°14'0 0.0 27.5
2013-Mar-05 02:20N 10°47' E 165°14'214.3 27.5
2013-Mar-05 02:13N 10°47' E 165°16'0 0.0 27.5
2013-Mar-04 23:25N 10°47' E 165°16'231.3 27.4
2013-Mar-04 23:22N 10°46' E 165°17'   27.4

Dump ship's entire track history

sailing weather and tide predictions

Buoy 51627